createdAt,value
2023-03-03T00:03:09.592Z,61.58
2023-03-03T00:08:11.852Z,61.70
2023-03-03T00:13:24.892Z,62.01
2023-03-03T00:18:31.892Z,62.32
2023-03-03T00:23:38.691Z,62.73
2023-03-03T00:28:52.310Z,63.00
2023-03-03T00:33:55.837Z,62.94
2023-03-03T00:39:17.435Z,63.11
2023-03-03T00:44:29.248Z,63.21
2023-03-03T00:49:31.400Z,63.53
2023-03-03T00:54:33.436Z,63.74
2023-03-03T00:59:35.505Z,64.39
2023-03-03T01:04:38.013Z,64.68
2023-03-03T01:09:41.343Z,65.42
2023-03-03T01:14:45.488Z,66.03
2023-03-03T01:19:47.979Z,66.01
2023-03-03T01:24:49.935Z,65.93
2023-03-03T01:29:51.934Z,66.03
2023-03-03T01:34:54.814Z,66.57
2023-03-03T01:39:56.934Z,66.83
2023-03-03T01:45:19.284Z,66.75
2023-03-03T01:50:46.543Z,66.87
2023-03-03T01:55:51.616Z,66.53
2023-03-03T02:00:55.938Z,66.64
2023-03-03T02:06:04.556Z,66.62
2023-03-03T02:11:06.998Z,66.66
2023-03-03T02:16:09.121Z,66.74
2023-03-03T02:21:13.430Z,66.82
2023-03-03T02:26:26.863Z,66.83
2023-03-03T02:31:34.406Z,66.87
2023-03-03T02:36:38.368Z,66.75
2023-03-03T02:41:49.018Z,66.63
2023-03-03T02:46:53.214Z,66.94
2023-03-03T02:51:55.817Z,67.08
2023-03-03T02:57:00.169Z,67.07
2023-03-03T03:02:02.386Z,67.14
2023-03-03T03:07:04.614Z,67.07
2023-03-03T03:12:08.930Z,67.28
2023-03-03T03:17:12.853Z,67.17
2023-03-03T03:22:15.687Z,67.30
2023-03-03T03:27:19.475Z,67.20
2023-03-03T03:32:23.087Z,67.68
2023-03-03T03:37:25.470Z,67.19
2023-03-03T03:42:27.647Z,67.90
2023-03-03T03:47:30.139Z,67.83
2023-03-03T03:52:33.380Z,67.76
2023-03-03T03:57:35.468Z,68.51
2023-03-03T04:02:38.209Z,69.23
2023-03-03T04:07:40.389Z,69.04
2023-03-03T04:12:44.240Z,69.38
2023-03-03T04:17:49.018Z,69.52
2023-03-03T04:22:51.145Z,69.24
2023-03-03T04:27:53.911Z,69.60
2023-03-03T04:32:57.429Z,69.80
2023-03-03T04:38:02.086Z,70.25
2023-03-03T04:43:04.954Z,70.17
2023-03-03T04:48:08.319Z,70.53
2023-03-03T04:53:11.317Z,70.68
2023-03-03T04:58:16.131Z,70.77
2023-03-03T05:03:19.808Z,70.59
2023-03-03T05:08:22.414Z,70.99
2023-03-03T05:13:24.394Z,71.01
2023-03-03T05:18:27.704Z,71.01
2023-03-03T05:23:30.480Z,70.96
2023-03-03T05:28:33.211Z,71.15
2023-03-03T05:33:35.174Z,71.22
2023-03-03T05:38:37.234Z,71.40
2023-03-03T05:43:39.425Z,71.52
2023-03-03T05:48:41.837Z,71.25
2023-03-03T05:53:43.749Z,71.36
2023-03-03T05:58:45.944Z,71.46
2023-03-03T06:03:48.046Z,71.33
2023-03-03T06:08:50.099Z,71.88
2023-03-03T06:13:52.268Z,71.67
2023-03-03T06:18:54.570Z,71.90
2023-03-03T06:23:56.602Z,72.41
2023-03-03T06:28:59.161Z,72.18
2023-03-03T06:34:01.223Z,72.51
2023-03-03T06:39:04.261Z,72.60
2023-03-03T06:44:07.133Z,72.21
2023-03-03T06:49:09.316Z,72.27
2023-03-03T06:54:16.152Z,72.21
2023-03-03T06:59:20.642Z,71.92
2023-03-03T07:04:31.843Z,71.84
2023-03-03T07:09:33.789Z,71.79
2023-03-03T07:14:42.227Z,72.11
2023-03-03T07:19:45.292Z,72.74
2023-03-03T07:24:52.489Z,72.46
2023-03-03T07:30:00.827Z,72.45
2023-03-03T07:35:03.385Z,71.71
2023-03-03T07:40:45.957Z,71.22
2023-03-03T07:45:50.098Z,71.38
2023-03-03T07:50:52.668Z,71.71
2023-03-03T07:55:55.242Z,71.27
2023-03-03T08:01:34.492Z,71.38
2023-03-03T08:06:36.356Z,71.31
2023-03-03T08:11:56.074Z,71.45
2023-03-03T08:17:00.608Z,71.55
2023-03-03T08:22:13.844Z,71.17
2023-03-03T08:27:15.809Z,70.91
2023-03-03T08:32:17.945Z,70.93
2023-03-03T08:37:19.839Z,70.72
2023-03-03T08:42:21.977Z,69.80
2023-03-03T08:47:24.024Z,69.49
2023-03-03T08:52:26.992Z,68.56
2023-03-03T08:57:29.051Z,67.43
2023-03-03T09:02:30.972Z,67.14
2023-03-03T09:07:33.214Z,65.40
2023-03-03T09:12:39.039Z,64.86
2023-03-03T09:17:41.700Z,63.73
2023-03-03T09:22:44.756Z,60.05
2023-03-03T09:27:47.769Z,54.88
2023-03-03T09:32:50.026Z,51.58
2023-03-03T09:37:52.109Z,48.13
2023-03-03T09:43:00.801Z,45.94
2023-03-03T09:48:21.179Z,44.99
2023-03-03T09:53:57.875Z,43.62
2023-03-03T09:59:24.318Z,42.57
2023-03-03T10:04:37.173Z,42.65
2023-03-03T10:10:12.355Z,42.06
2023-03-03T10:15:20.222Z,41.24
2023-03-03T10:20:53.366Z,41.10
2023-03-03T10:26:29.039Z,39.93
2023-03-03T10:32:03.945Z,40.00
2023-03-03T10:38:06.791Z,39.38
2023-03-03T10:43:45.941Z,39.46
2023-03-03T10:49:05.116Z,39.61
2023-03-03T10:54:48.719Z,38.52
2023-03-03T10:59:55.218Z,37.74
2023-03-03T11:05:15.649Z,38.09
2023-03-03T11:10:55.449Z,37.05
2023-03-03T11:16:34.539Z,36.79
2023-03-03T11:21:50.670Z,36.22
2023-03-03T11:27:05.986Z,37.79
2023-03-03T11:32:16.839Z,38.89
2023-03-03T11:37:29.380Z,40.18
2023-03-03T11:43:10.961Z,40.01
2023-03-03T11:48:35.955Z,39.66
2023-03-03T11:53:52.907Z,40.30
2023-03-03T11:59:30.356Z,40.97
2023-03-03T12:04:34.728Z,41.87
2023-03-03T12:10:13.901Z,42.83
2023-03-03T12:15:28.892Z,40.61
2023-03-03T12:20:33.564Z,40.92
2023-03-03T12:25:45.078Z,42.55
2023-03-03T12:31:02.980Z,43.30
2023-03-03T12:36:08.099Z,41.99
2023-03-03T12:41:09.907Z,41.37
2023-03-03T12:46:14.702Z,41.02
2023-03-03T12:51:57.956Z,39.57
2023-03-03T12:57:08.987Z,40.13
2023-03-03T13:02:38.739Z,39.81
2023-03-03T13:08:08.050Z,39.45
2023-03-03T13:13:19.340Z,41.07
2023-03-03T13:18:36.485Z,39.09
2023-03-03T13:24:00.259Z,40.17
2023-03-03T13:29:36.279Z,38.67
2023-03-03T13:35:06.987Z,41.10
2023-03-03T13:40:14.957Z,38.58
2023-03-03T13:45:26.329Z,38.41
2023-03-03T13:50:31.620Z,38.83
2023-03-03T13:55:37.661Z,37.86
2023-03-03T14:01:08.354Z,38.40
2023-03-03T14:06:20.663Z,37.17
2023-03-03T14:11:30.001Z,37.15
2023-03-03T14:16:42.722Z,37.41
2023-03-03T14:22:27.516Z,36.70
2023-03-03T14:28:10.228Z,38.82
2023-03-03T14:33:12.298Z,36.56
2023-03-03T14:38:25.502Z,36.86
2023-03-03T14:43:36.108Z,36.75
2023-03-03T14:48:51.026Z,38.07
2023-03-03T14:53:53.215Z,35.53
2023-03-03T14:59:16.176Z,37.13
2023-03-03T15:04:18.208Z,35.50
2023-03-03T15:09:33.910Z,35.60
2023-03-03T15:14:39.279Z,36.00
2023-03-03T15:20:02.144Z,36.27
2023-03-03T15:25:20.852Z,35.03
2023-03-03T15:30:29.659Z,35.91
2023-03-03T15:35:44.659Z,35.34
2023-03-03T15:40:51.238Z,34.87
2023-03-03T15:46:20.887Z,34.82
2023-03-03T15:51:33.670Z,36.67
2023-03-03T15:56:58.461Z,34.95
2023-03-03T16:02:18.439Z,34.92
2023-03-03T16:07:32.327Z,36.55
2023-03-03T16:12:46.331Z,35.27
2023-03-03T16:18:15.444Z,35.08
2023-03-03T16:23:29.359Z,35.98
2023-03-03T16:28:44.356Z,35.95
2023-03-03T16:34:19.370Z,36.06
2023-03-03T16:39:27.449Z,35.54
2023-03-03T16:44:38.387Z,35.43
2023-03-03T16:50:06.936Z,34.88
2023-03-03T16:55:26.722Z,35.60
2023-03-03T17:00:30.962Z,35.13
2023-03-03T17:06:02.289Z,35.01
2023-03-03T17:11:26.065Z,34.47
2023-03-03T17:16:28.010Z,37.09
2023-03-03T17:21:57.916Z,36.15
2023-03-03T17:27:53.712Z,35.56
2023-03-03T17:33:09.832Z,37.01
2023-03-03T17:38:30.377Z,37.47
2023-03-03T17:43:38.270Z,37.67
2023-03-03T17:49:18.440Z,37.41
2023-03-03T17:54:26.264Z,39.31
2023-03-03T17:59:47.600Z,38.40
2023-03-03T18:05:07.373Z,38.94
2023-03-03T18:10:24.292Z,40.25
2023-03-03T18:15:42.926Z,40.99
2023-03-03T18:20:57.002Z,37.12
2023-03-03T18:26:02.378Z,37.05
2023-03-03T18:31:05.068Z,37.78
2023-03-03T18:36:27.201Z,40.50
2023-03-03T18:41:31.928Z,39.61
2023-03-03T18:46:37.050Z,39.94
2023-03-03T18:51:39.071Z,40.46
2023-03-03T18:56:50.267Z,47.10
2023-03-03T19:01:52.574Z,40.01
2023-03-03T19:06:57.418Z,40.90
2023-03-03T19:11:59.430Z,42.46
2023-03-03T19:17:16.459Z,43.09
2023-03-03T19:22:24.087Z,43.53
2023-03-03T19:27:36.069Z,44.36
2023-03-03T19:33:05.134Z,43.73
2023-03-03T19:38:44.629Z,45.44
2023-03-03T19:43:59.093Z,45.17
2023-03-03T19:49:14.929Z,45.29
2023-03-03T19:54:22.733Z,46.05
2023-03-03T19:59:42.293Z,46.77
2023-03-03T20:05:09.430Z,47.17
2023-03-03T20:10:20.603Z,47.45
2023-03-03T20:15:38.323Z,47.76
2023-03-03T20:20:53.824Z,48.00
2023-03-03T20:26:00.951Z,48.32
2023-03-03T20:31:20.916Z,49.03
2023-03-03T20:36:29.484Z,49.72
2023-03-03T20:41:45.495Z,50.11
2023-03-03T20:46:58.885Z,54.09
2023-03-03T20:52:22.244Z,51.50
2023-03-03T20:57:56.166Z,52.21
2023-03-03T21:03:38.348Z,52.22
2023-03-03T21:08:40.282Z,53.82
2023-03-03T21:13:54.437Z,53.32
2023-03-03T21:19:06.913Z,53.88
2023-03-03T21:24:15.489Z,53.98
2023-03-03T21:29:36.077Z,54.64
2023-03-03T21:34:40.127Z,54.67
2023-03-03T21:39:46.898Z,54.96
2023-03-03T21:44:50.270Z,55.45
2023-03-03T21:49:52.492Z,55.42
2023-03-03T21:54:54.851Z,55.97
2023-03-03T21:59:57.105Z,55.90
2023-03-03T22:04:59.801Z,56.08
2023-03-03T22:10:03.430Z,56.29
2023-03-03T22:15:06.163Z,56.33
2023-03-03T22:20:11.581Z,56.42
2023-03-03T22:25:13.464Z,56.66
2023-03-03T22:30:15.945Z,57.18
2023-03-03T22:35:19.116Z,57.01
2023-03-03T22:40:21.166Z,57.09
2023-03-03T22:45:23.032Z,57.72
2023-03-03T22:50:25.470Z,57.94
2023-03-03T22:55:27.508Z,58.01
2023-03-03T23:00:29.636Z,58.55
2023-03-03T23:05:31.692Z,58.49
2023-03-03T23:10:33.980Z,58.86
2023-03-03T23:15:36.097Z,59.42
2023-03-03T23:20:38.093Z,59.68
2023-03-03T23:25:40.307Z,59.77
2023-03-03T23:30:42.854Z,60.06
2023-03-03T23:35:45.737Z,60.01
2023-03-03T23:40:47.941Z,60.48
2023-03-03T23:45:49.879Z,60.50
2023-03-03T23:50:51.893Z,60.86
2023-03-03T23:55:53.696Z,61.16
